WAT9508 SVMC-SKRG
Flight info
| Callsign | WAT9508 |
|---|---|
| Flight time | N/A |
| Altitude | 24000 |
| Route | ASIBA1 BOBAT W1 STB A567 CUC G431 EJA W26 DIPRA DIPRA3B |
| Aircraft | E135/M-SDFGIRW/S |
Departure
| Time | 2026-04-28 00:03 |
|---|---|
| Airport | La Chinita International Airport (SVMC) |
Arrival
| Time | N/A |
|---|---|
| Airport | Jose Maria Córdova International Airport (SKRG) |
| Time | Latitude | Longitude | Altitude | Speed | Heading |
|---|---|---|---|---|---|
| 2026-04-27 23:10 | 10.55788 | -71.72360 | 209 ft | 0 kts | 113° |
| 2026-04-27 23:51 | 10.55792 | -71.72370 | 210 ft | 2 kts | 113° |
| 2026-04-27 23:51 | 10.55798 | -71.72385 | 210 ft | 2 kts | 113° |
| 2026-04-27 23:51 | 10.55804 | -71.72398 | 210 ft | 2 kts | 113° |
| 2026-04-27 23:52 | 10.55810 | -71.72413 | 210 ft | 2 kts | 113° |
| 2026-04-27 23:52 | 10.55816 | -71.72427 | 210 ft | 2 kts | 117° |
| 2026-04-27 23:52 | 10.55827 | -71.72437 | 210 ft | 2 kts | 157° |
| 2026-04-27 23:52 | 10.55841 | -71.72438 | 210 ft | 2 kts | 193° |
| 2026-04-27 23:53 | 10.55847 | -71.72437 | 211 ft | 0 kts | 204° |
| 2026-04-27 23:57 | 10.55813 | -71.72452 | 210 ft | 11 kts | 203° |
| 2026-04-27 23:58 | 10.55709 | -71.72496 | 208 ft | 17 kts | 202° |
| 2026-04-27 23:58 | 10.55654 | -71.72543 | 207 ft | 10 kts | 249° |
| 2026-04-27 23:58 | 10.55669 | -71.72614 | 208 ft | 10 kts | 293° |
| 2026-04-27 23:58 | 10.55700 | -71.72687 | 209 ft | 11 kts | 293° |
| 2026-04-27 23:59 | 10.55676 | -71.72753 | 208 ft | 12 kts | 202° |
| 2026-04-27 23:59 | 10.55207 | -71.72952 | 204 ft | 15 kts | 202° |
| 2026-04-27 23:59 | 10.55103 | -71.72996 | 205 ft | 16 kts | 202° |
| 2026-04-27 23:59 | 10.54993 | -71.73041 | 205 ft | 17 kts | 202° |
| 2026-04-28 00:00 | 10.54881 | -71.73092 | 207 ft | 17 kts | 203° |
| 2026-04-28 00:00 | 10.54765 | -71.73141 | 209 ft | 17 kts | 202° |
| 2026-04-28 00:00 | 10.54669 | -71.73216 | 211 ft | 16 kts | 234° |
| 2026-04-28 00:00 | 10.54633 | -71.73251 | 212 ft | 6 kts | 207° |
| 2026-04-28 00:01 | 10.54594 | -71.73280 | 213 ft | 6 kts | 221° |
| 2026-04-28 00:01 | 10.54565 | -71.73315 | 214 ft | 6 kts | 248° |
| 2026-04-28 00:01 | 10.54571 | -71.73357 | 215 ft | 6 kts | 294° |
| 2026-04-28 00:01 | 10.54600 | -71.73399 | 215 ft | 7 kts | 328° |
| 2026-04-28 00:02 | 10.54640 | -71.73393 | 214 ft | 0 kts | 23° |
| 2026-04-28 00:02 | 10.54657 | -71.73386 | 214 ft | 12 kts | 23° |
| 2026-04-28 00:02 | 10.55013 | -71.73234 | 207 ft | 100 kts | 21° |
| 2026-04-28 00:03 | 10.55877 | -71.72866 | 384 ft | 153 kts | 23° |
| 2026-04-28 00:03 | 10.56864 | -71.72456 | 1284 ft | 157 kts | 24° |
| 2026-04-28 00:03 | 10.57803 | -71.72059 | 2339 ft | 147 kts | 25° |
| 2026-04-28 00:03 | 10.58915 | -71.71556 | 2308 ft | 209 kts | 26° |
| 2026-04-28 00:04 | 10.60334 | -71.70877 | 2833 ft | 238 kts | 26° |
| 2026-04-28 00:04 | 10.62152 | -71.68210 | 4691 ft | 256 kts | 92° |
| 2026-04-28 00:04 | 10.61503 | -71.66547 | 5709 ft | 262 kts | 128° |
| 2026-04-28 00:05 | 10.59966 | -71.65560 | 6650 ft | 271 kts | 163° |
| 2026-04-28 00:05 | 10.58101 | -71.65636 | 7576 ft | 277 kts | 195° |
| 2026-04-28 00:05 | 10.56250 | -71.66202 | 8501 ft | 279 kts | 195° |
| 2026-04-28 00:05 | 10.54352 | -71.66573 | 9373 ft | 280 kts | 181° |
| 2026-04-28 00:06 | 10.52431 | -71.66513 | 10203 ft | 281 kts | 173° |
| 2026-04-28 00:06 | 10.50458 | -71.66242 | 10792 ft | 293 kts | 169° |
| 2026-04-28 00:06 | 10.48401 | -71.65846 | 11261 ft | 307 kts | 167° |
| 2026-04-28 00:06 | 10.46272 | -71.65381 | 11792 ft | 318 kts | 166° |
| 2026-04-28 00:07 | 10.44072 | -71.64872 | 12299 ft | 329 kts | 166° |
| 2026-04-28 00:07 | 10.41826 | -71.64342 | 12972 ft | 332 kts | 166° |
| 2026-04-28 00:07 | 10.39518 | -71.63792 | 13668 ft | 334 kts | 166° |
| 2026-04-28 00:07 | 10.37268 | -71.63254 | 14312 ft | 337 kts | 166° |
| 2026-04-28 00:08 | 10.34966 | -71.62703 | 14914 ft | 340 kts | 166° |
| 2026-04-28 00:08 | 10.32651 | -71.62149 | 15510 ft | 342 kts | 166° |
| 2026-04-28 00:08 | 10.30305 | -71.61587 | 16098 ft | 344 kts | 166° |
| 2026-04-28 00:08 | 10.27960 | -71.61025 | 16657 ft | 347 kts | 166° |
| 2026-04-28 00:09 | 10.25615 | -71.60463 | 17213 ft | 348 kts | 166° |
| 2026-04-28 00:09 | 10.23229 | -71.59891 | 17712 ft | 351 kts | 166° |
| 2026-04-28 00:09 | 10.20862 | -71.59323 | 18253 ft | 351 kts | 166° |
| 2026-04-28 00:09 | 10.18486 | -71.58754 | 18966 ft | 345 kts | 166° |
| 2026-04-28 00:10 | 10.16127 | -71.58415 | 19538 ft | 344 kts | 182° |
| 2026-04-28 00:10 | 10.13862 | -71.59112 | 20016 ft | 347 kts | 208° |
| 2026-04-28 00:10 | 10.12012 | -71.60696 | 20566 ft | 347 kts | 221° |
| 2026-04-28 00:10 | 10.10278 | -71.62378 | 21078 ft | 346 kts | 222° |
| 2026-04-28 00:11 | 10.08566 | -71.64065 | 21578 ft | 345 kts | 222° |
| 2026-04-28 00:11 | 10.06860 | -71.65753 | 22074 ft | 343 kts | 222° |
| 2026-04-28 00:11 | 10.05155 | -71.67444 | 22579 ft | 341 kts | 222° |
| 2026-04-28 00:11 | 10.03436 | -71.69146 | 23032 ft | 341 kts | 223° |
| 2026-04-28 00:12 | 10.01764 | -71.70807 | 23497 ft | 340 kts | 222° |
| 2026-04-28 00:12 | 10.00077 | -71.72478 | 23917 ft | 340 kts | 222° |
| 2026-04-28 00:12 | 9.98378 | -71.74167 | 24367 ft | 339 kts | 222° |
| 2026-04-28 00:12 | 9.96692 | -71.75837 | 24825 ft | 337 kts | 222° |
| 2026-04-28 00:13 | 9.95016 | -71.77500 | 25266 ft | 336 kts | 222° |
| 2026-04-28 00:13 | 9.93354 | -71.79145 | 25645 ft | 336 kts | 222° |
| 2026-04-28 00:13 | 9.91447 | -71.80469 | 26005 ft | 331 kts | 199° |
| 2026-04-28 00:13 | 9.89219 | -71.80900 | 26390 ft | 328 kts | 187° |
| 2026-04-28 00:14 | 9.86974 | -71.81237 | 26785 ft | 327 kts | 187° |
| 2026-04-28 00:14 | 9.84675 | -71.81574 | 27172 ft | 326 kts | 187° |
| 2026-04-28 00:14 | 9.82406 | -71.81904 | 27518 ft | 327 kts | 187° |
| 2026-04-28 00:14 | 9.80152 | -71.82230 | 27869 ft | 326 kts | 187° |
| 2026-04-28 00:15 | 9.77920 | -71.82550 | 28243 ft | 325 kts | 187° |
| 2026-04-28 00:15 | 9.75664 | -71.82877 | 28604 ft | 324 kts | 186° |
| 2026-04-28 00:15 | 9.73451 | -71.83193 | 28943 ft | 324 kts | 187° |
| 2026-04-28 00:15 | 9.71198 | -71.83516 | 29264 ft | 324 kts | 187° |
| 2026-04-28 00:16 | 9.68980 | -71.83834 | 29603 ft | 323 kts | 187° |
| 2026-04-28 00:16 | 9.66735 | -71.84158 | 29909 ft | 324 kts | 188° |
| 2026-04-28 00:16 | 9.64468 | -71.84484 | 29936 ft | 333 kts | 188° |
| 2026-04-28 00:17 | 9.59735 | -71.85167 | 29953 ft | 351 kts | 188° |
| 2026-04-28 00:17 | 9.54781 | -71.85881 | 29941 ft | 367 kts | 188° |
| 2026-04-28 00:18 | 9.49590 | -71.86627 | 29935 ft | 381 kts | 187° |
| 2026-04-28 00:18 | 9.44283 | -71.87390 | 29943 ft | 389 kts | 187° |
| 2026-04-28 00:19 | 9.38818 | -71.88174 | 29951 ft | 396 kts | 188° |
| 2026-04-28 00:19 | 9.33311 | -71.88966 | 29957 ft | 400 kts | 188° |
| 2026-04-28 00:20 | 9.27734 | -71.89768 | 29942 ft | 403 kts | 188° |
| 2026-04-28 00:20 | 9.22133 | -71.90572 | 29955 ft | 405 kts | 188° |
| 2026-04-28 00:21 | 9.16521 | -71.91378 | 29932 ft | 407 kts | 187° |
| 2026-04-28 00:21 | 9.10864 | -71.92188 | 29932 ft | 408 kts | 188° |
| 2026-04-28 00:22 | 9.05223 | -71.92997 | 29934 ft | 409 kts | 188° |
| 2026-04-28 00:22 | 8.99582 | -71.93808 | 29960 ft | 409 kts | 188° |
| 2026-04-28 00:22 | 8.96854 | -71.94699 | 29938 ft | 409 kts | 208° |
| 2026-04-28 00:23 | 8.94381 | -71.96091 | 29960 ft | 409 kts | 208° |
| 2026-04-28 00:23 | 8.89390 | -71.98889 | 29978 ft | 410 kts | 208° |
| 2026-04-28 00:24 | 8.84419 | -72.01675 | 29967 ft | 411 kts | 208° |
| 2026-04-28 00:24 | 8.79339 | -72.04524 | 30000 ft | 411 kts | 208° |
| 2026-04-28 00:25 | 8.74285 | -72.07355 | 29986 ft | 418 kts | 208° |
| 2026-04-28 00:25 | 8.69120 | -72.10247 | 29997 ft | 429 kts | 208° |
| 2026-04-28 00:26 | 8.63816 | -72.13216 | 30013 ft | 435 kts | 208° |
| 2026-04-28 00:26 | 8.58478 | -72.16203 | 30030 ft | 439 kts | 208° |
| 2026-04-28 00:27 | 8.53093 | -72.19217 | 30047 ft | 440 kts | 208° |